Time;durP1;ratioP1;P1;durP2;ratioP2;P2;SDS_P1;SDS_P2;PMS_P1;PMS_P2;Temp;Humidity;BMP_temperature;BMP_pressure;BME280_temperature;BME280_humidity;BME280_pressure;Samples;Min_cycle;Max_cycle;Signal;HPM_P1;HPM_P2
2023/08/05 00:01:26;;;;;;;4.10;2.80;;;18.00;99.90;;;;;;5074276;28;20050;-42
2023/08/05 00:03:51;;;;;;;2.95;2.67;;;18.00;99.90;;;;;;5085252;28;20036;-42
2023/08/05 00:06:19;;;;;;;5.15;2.70;;;18.00;99.90;;;;;;5076430;28;20635;-42
2023/08/05 00:08:45;;;;;;;2.92;2.63;;;18.00;99.90;;;;;;5075976;28;20116;-41
2023/08/05 00:11:11;;;;;;;4.53;2.90;;;18.00;99.90;;;;;;5076894;28;20160;-43
2023/08/05 00:13:36;;;;;;;4.05;3.10;;;18.00;99.90;;;;;;5064634;28;20016;-41
2023/08/05 00:16:02;;;;;;;3.70;3.10;;;18.00;99.90;;;;;;5075891;28;20439;-41
2023/08/05 00:18:34;;;;;;;4.82;3.90;;;18.10;99.90;;;;;;5066520;28;20784;-42
2023/08/05 00:20:59;;;;;;;3.63;3.33;;;18.00;99.90;;;;;;5073934;28;20028;-42
2023/08/05 00:23:25;;;;;;;4.07;3.40;;;18.10;99.90;;;;;;5067080;28;20042;-41
2023/08/05 00:25:53;;;;;;;4.38;3.30;;;18.00;99.90;;;;;;5072790;28;20028;-42
2023/08/05 00:28:22;;;;;;;5.75;3.72;;;18.10;99.90;;;;;;5069057;28;20997;-42
2023/08/05 00:30:48;;;;;;;3.83;3.50;;;18.10;99.90;;;;;;5069952;28;20139;-42
2023/08/05 00:33:13;;;;;;;4.28;3.58;;;18.00;99.90;;;;;;5071731;28;20107;-42
2023/08/05 00:35:42;;;;;;;4.68;3.42;;;18.10;99.90;;;;;;5066003;28;20021;-42
2023/08/05 00:38:07;;;;;;;4.55;3.30;;;18.10;99.90;;;;;;5073619;28;20119;-43
2023/08/05 00:40:33;;;;;;;4.47;3.28;;;18.10;99.90;;;;;;5067102;28;20142;-42
2023/08/05 00:43:02;;;;;;;4.90;3.95;;;18.10;99.90;;;;;;5074504;28;20032;-42
2023/08/05 00:45:28;;;;;;;4.63;3.25;;;18.10;99.90;;;;;;5066242;28;20031;-41
2023/08/05 00:47:54;;;;;;;4.32;3.50;;;18.00;99.90;;;;;;5075413;28;20052;-42
2023/08/05 00:50:21;;;;;;;3.90;3.50;;;18.00;99.90;;;;;;5063294;28;20055;-42
2023/08/05 00:52:55;;;;;;;3.70;3.30;;;18.10;99.90;;;;;;5071325;28;20512;-42
2023/08/05 00:55:24;;;;;;;3.97;3.50;;;18.10;99.90;;;;;;5083520;28;20421;-42
2023/08/05 00:57:50;;;;;;;4.63;3.83;;;18.10;99.90;;;;;;5071347;28;20055;-42
2023/08/05 01:00:16;;;;;;;4.25;2.92;;;18.00;99.90;;;;;;5082470;28;20135;-42
2023/08/05 01:02:41;;;;;;;3.67;3.03;;;18.10;99.90;;;;;;5071125;28;20124;-42
2023/08/05 01:05:07;;;;;;;3.78;3.30;;;18.00;99.90;;;;;;5083338;28;20517;-42
2023/08/05 01:07:35;;;;;;;3.45;3.00;;;18.00;99.90;;;;;;5074463;28;20021;-41
2023/08/05 01:10:01;;;;;;;4.20;3.15;;;17.90;99.90;;;;;;5080904;28;20028;-41
2023/08/05 01:12:30;;;;;;;4.20;3.00;;;17.90;99.90;;;;;;5076098;28;20349;-42
2023/08/05 01:14:58;;;;;;;4.30;2.92;;;17.90;99.90;;;;;;5078986;28;20077;-41
2023/08/05 01:17:24;;;;;;;5.50;3.10;;;17.90;99.90;;;;;;5077361;28;20026;-41
2023/08/05 01:19:50;;;;;;;5.63;3.33;;;17.90;99.90;;;;;;5077069;28;20402;-42
2023/08/05 01:22:29;;;;;;;4.20;3.38;;;17.90;99.90;;;;;;5079768;28;20026;-41
2023/08/05 01:25:07;;;;;;;6.65;3.40;;;17.90;99.90;;;;;;5075591;28;20122;-42
2023/08/05 01:27:33;;;;;;;3.97;3.30;;;17.90;99.90;;;;;;5080231;28;20043;-42
2023/08/05 01:29:59;;;;;;;3.88;2.97;;;17.90;99.90;;;;;;5075412;28;20040;-42
2023/08/05 01:32:26;;;;;;;3.75;2.67;;;17.80;99.90;;;;;;5081845;28;20023;-41
2023/08/05 01:34:53;;;;;;;4.20;2.78;;;17.80;99.90;;;;;;5083602;28;20028;-41
2023/08/05 01:37:19;;;;;;;3.05;2.70;;;17.80;99.90;;;;;;5080987;28;20830;-42
2023/08/05 01:39:47;;;;;;;2.88;2.40;;;17.70;99.90;;;;;;5072371;28;20024;-41
2023/08/05 01:42:13;;;;;;;3.05;2.75;;;17.70;99.90;;;;;;5082297;28;20035;-42
2023/08/05 01:44:39;;;;;;;3.38;2.67;;;17.70;99.90;;;;;;5071762;28;20024;-42
2023/08/05 01:47:04;;;;;;;3.55;3.03;;;17.70;99.90;;;;;;5082717;28;20043;-42
2023/08/05 01:49:30;;;;;;;3.22;2.80;;;17.70;99.90;;;;;;5070451;28;20068;-42
2023/08/05 01:51:55;;;;;;;4.95;2.90;;;17.60;99.90;;;;;;5083691;28;20024;-42
2023/08/05 01:54:21;;;;;;;4.47;2.72;;;17.60;99.90;;;;;;5072908;28;20062;-42
2023/08/05 01:56:47;;;;;;;3.80;2.60;;;17.70;99.90;;;;;;5076626;28;20033;-42
2023/08/05 01:59:15;;;;;;;3.42;2.70;;;17.60;99.90;;;;;;5071730;28;20020;-42
2023/08/05 02:01:42;;;;;;;3.35;2.60;;;17.60;99.90;;;;;;5071244;28;20036;-42
2023/08/05 02:04:07;;;;;;;4.40;2.88;;;17.60;99.90;;;;;;5077464;28;20956;-42
2023/08/05 02:06:33;;;;;;;2.63;2.20;;;17.60;99.90;;;;;;5071476;28;20016;-42
2023/08/05 02:08:58;;;;;;;2.80;2.42;;;17.60;99.90;;;;;;5078120;28;20537;-43
2023/08/05 02:11:26;;;;;;;2.95;2.60;;;17.60;99.90;;;;;;5077448;28;20660;-42
2023/08/05 02:13:54;;;;;;;2.80;2.47;;;17.60;99.90;;;;;;5084701;28;20016;-42
2023/08/05 02:16:20;;;;;;;4.22;2.65;;;17.50;99.90;;;;;;5076640;28;20546;-44
2023/08/05 02:18:45;;;;;;;6.63;2.58;;;17.50;99.90;;;;;;5086240;28;20166;-43
2023/08/05 02:21:14;;;;;;;2.65;2.45;;;17.50;99.90;;;;;;5074887;28;20072;-44
2023/08/05 02:23:42;;;;;;;2.85;2.42;;;17.50;99.90;;;;;;5077567;28;20460;-43
2023/08/05 02:26:08;;;;;;;3.72;2.65;;;17.50;99.90;;;;;;5077240;28;20020;-43
2023/08/05 02:28:34;;;;;;;3.40;2.40;;;17.50;99.90;;;;;;5066497;28;20058;-46
2023/08/05 02:30:59;;;;;;;2.53;2.33;;;17.50;99.90;;;;;;5078586;28;20050;-43
2023/08/05 02:33:25;;;;;;;2.72;2.35;;;17.50;99.90;;;;;;5067248;28;20078;-43
2023/08/05 02:35:59;;;;;;;2.83;2.50;;;17.50;99.90;;;;;;5079549;28;20027;-43
2023/08/05 02:38:25;;;;;;;2.67;2.28;;;17.60;99.90;;;;;;5067131;28;20040;-43
2023/08/05 02:40:50;;;;;;;4.32;2.47;;;17.60;99.90;;;;;;5075222;28;20029;-43
2023/08/05 02:43:19;;;;;;;2.63;2.30;;;17.60;99.90;;;;;;5086545;28;20085;-43
2023/08/05 02:45:57;;;;;;;3.47;2.22;;;17.60;99.90;;;;;;5077183;28;20028;-43
2023/08/05 02:48:24;;;;;;;2.85;2.33;;;17.60;99.90;;;;;;5083760;28;20542;-43
2023/08/05 02:50:53;;;;;;;2.40;2.20;;;17.60;99.90;;;;;;5077927;28;20068;-43
2023/08/05 02:53:19;;;;;;;2.90;2.28;;;17.60;99.90;;;;;;5083041;28;20038;-43
2023/08/05 02:55:46;;;;;;;3.53;2.20;;;17.60;99.90;;;;;;5079320;28;20077;-41
2023/08/05 02:58:16;;;;;;;3.08;2.10;;;17.60;99.90;;;;;;5079973;28;20020;-41
2023/08/05 03:00:41;;;;;;;3.58;2.70;;;17.60;99.90;;;;;;5082850;28;20044;-41
2023/08/05 03:03:08;;;;;;;2.95;2.40;;;17.60;99.90;;;;;;5073339;28;20464;-42
2023/08/05 03:05:34;;;;;;;2.75;2.45;;;17.50;99.90;;;;;;5068465;28;20027;-42
2023/08/05 03:08:00;;;;;;;2.90;2.47;;;17.50;99.90;;;;;;5076453;28;20028;-42
2023/08/05 03:10:25;;;;;;;2.72;2.20;;;17.40;99.90;;;;;;5066820;28;20096;-42
2023/08/05 03:12:51;;;;;;;3.00;2.70;;;17.40;99.90;;;;;;5077107;28;20020;-42
2023/08/05 03:15:16;;;;;;;3.10;2.47;;;17.40;99.90;;;;;;5077095;28;20520;-44
2023/08/05 03:17:42;;;;;;;3.05;2.42;;;17.40;99.90;;;;;;5074193;28;20155;-42
2023/08/05 03:20:34;;;;;;;3.42;2.90;;;17.40;99.90;;;;;;5085695;28;20528;-42
2023/08/05 03:23:02;;;;;;;5.23;2.70;;;17.40;99.90;;;;;;5074959;28;20020;-42
2023/08/05 03:25:28;;;;;;;2.85;2.38;;;17.40;99.90;;;;;;5067022;28;20035;-42
2023/08/05 03:27:54;;;;;;;3.72;2.30;;;17.40;99.90;;;;;;5070648;28;20021;-42
2023/08/05 03:30:28;;;;;;;2.70;2.42;;;17.30;99.90;;;;;;5064655;28;20056;-42
2023/08/05 03:32:54;;;;;;;3.17;2.38;;;17.30;99.90;;;;;;5079271;28;20454;-42
2023/08/05 03:35:19;;;;;;;4.38;2.40;;;17.30;99.90;;;;;;5075296;28;20502;-42
2023/08/05 03:37:45;;;;;;;4.82;2.50;;;17.20;99.90;;;;;;5071368;28;20409;-42
2023/08/05 03:40:12;;;;;;;3.33;2.55;;;17.20;99.90;;;;;;5078287;28;20025;-42
2023/08/05 03:42:41;;;;;;;2.75;2.42;;;17.10;99.90;;;;;;5072711;28;20819;-43
2023/08/05 03:45:07;;;;;;;3.90;2.70;;;17.10;99.90;;;;;;5080226;28;20024;-42
2023/08/05 03:47:36;;;;;;;3.15;2.38;;;17.00;99.90;;;;;;5077242;28;20068;-42
2023/08/05 03:50:01;;;;;;;4.13;2.67;;;17.00;99.90;;;;;;5078712;28;20060;-42
2023/08/05 03:52:30;;;;;;;4.72;2.20;;;17.00;99.90;;;;;;5080457;28;20038;-42
2023/08/05 03:54:56;;;;;;;3.10;2.08;;;16.90;99.90;;;;;;5072942;28;20029;-42
2023/08/05 03:57:21;;;;;;;3.10;2.40;;;16.90;99.90;;;;;;5067794;28;20576;-42
2023/08/05 03:59:49;;;;;;;4.95;3.03;;;16.90;99.90;;;;;;5075072;28;20088;-42
2023/08/05 04:02:18;;;;;;;2.72;2.33;;;16.90;99.90;;;;;;5066064;28;20051;-44
2023/08/05 04:04:44;;;;;;;3.03;2.67;;;16.90;99.90;;;;;;5076165;28;20479;-42
2023/08/05 04:07:09;;;;;;;2.95;2.42;;;16.90;99.90;;;;;;5078297;28;20031;-42
2023/08/05 04:09:38;;;;;;;3.63;2.65;;;16.90;99.90;;;;;;5076693;28;20563;-42
2023/08/05 04:12:09;;;;;;;3.45;2.60;;;16.90;99.90;;;;;;5064106;28;20544;-42
2023/08/05 04:14:37;;;;;;;3.20;2.88;;;17.00;99.90;;;;;;5080189;28;20040;-42
2023/08/05 04:17:03;;;;;;;3.75;2.88;;;17.00;99.90;;;;;;5064055;28;20089;-42
2023/08/05 04:19:28;;;;;;;3.13;2.50;;;17.00;99.90;;;;;;5072262;28;20036;-42
2023/08/05 04:21:54;;;;;;;2.38;2.17;;;17.10;99.90;;;;;;5072548;28;20047;-42
2023/08/05 04:24:24;;;;;;;2.92;2.60;;;17.10;99.90;;;;;;5075531;28;20035;-42
2023/08/05 04:26:50;;;;;;;5.30;2.40;;;17.10;99.90;;;;;;5068979;28;20500;-42
2023/08/05 04:29:18;;;;;;;3.22;2.58;;;17.20;99.90;;;;;;5070013;28;20035;-42
2023/08/05 04:31:45;;;;;;;3.40;2.63;;;17.20;99.90;;;;;;5066490;28;20032;-42
2023/08/05 04:34:13;;;;;;;3.17;2.85;;;17.30;99.90;;;;;;5072142;28;20025;-42
2023/08/05 04:36:39;;;;;;;3.65;2.70;;;17.30;99.90;;;;;;5078539;28;20032;-42
2023/08/05 04:39:06;;;;;;;4.50;2.72;;;17.30;99.90;;;;;;5077430;28;20039;-42
2023/08/05 04:41:32;;;;;;;4.13;2.80;;;17.30;99.90;;;;;;5077935;28;20157;-42
2023/08/05 04:43:58;;;;;;;5.63;2.80;;;17.40;99.90;;;;;;5068422;28;20020;-42
2023/08/05 04:46:23;;;;;;;3.38;2.95;;;17.30;99.90;;;;;;5074397;28;20028;-42
2023/08/05 04:48:49;;;;;;;2.90;2.60;;;17.40;99.90;;;;;;5082511;28;20047;-42
2023/08/05 04:51:14;;;;;;;3.60;2.80;;;17.40;99.90;;;;;;5072942;28;20020;-41
2023/08/05 04:53:40;;;;;;;3.05;2.70;;;17.40;99.90;;;;;;5083001;28;20032;-42
2023/08/05 04:56:06;;;;;;;2.58;2.38;;;17.40;99.90;;;;;;5073887;28;20082;-42
2023/08/05 04:58:31;;;;;;;3.92;2.72;;;17.50;99.90;;;;;;5083308;28;20031;-42
2023/08/05 05:00:57;;;;;;;3.45;2.70;;;17.50;99.90;;;;;;5074293;28;20744;-41
2023/08/05 05:03:23;;;;;;;4.53;2.85;;;17.50;99.90;;;;;;5082576;28;20063;-42
2023/08/05 05:05:49;;;;;;;4.18;3.15;;;17.50;99.90;;;;;;5069946;28;20056;-42
2023/08/05 05:08:15;;;;;;;4.05;2.90;;;17.60;99.90;;;;;;5062526;28;20074;-43
2023/08/05 05:10:45;;;;;;;4.88;3.30;;;17.60;99.90;;;;;;5073155;28;20052;-43
2023/08/05 05:13:11;;;;;;;4.07;3.22;;;17.60;99.90;;;;;;5065485;28;20028;-42
2023/08/05 05:15:36;;;;;;;5.15;3.40;;;17.60;99.90;;;;;;5077831;28;20020;-43
2023/08/05 05:18:02;;;;;;;5.07;2.92;;;17.60;99.90;;;;;;5067996;28;20170;-42
2023/08/05 05:20:30;;;;;;;4.57;3.20;;;17.60;99.90;;;;;;5069724;28;20028;-43
2023/08/05 05:22:56;;;;;;;3.20;2.90;;;17.60;99.90;;;;;;5070376;28;20070;-41
2023/08/05 05:25:22;;;;;;;3.97;3.05;;;17.60;99.90;;;;;;5065779;28;20442;-41
2023/08/05 05:27:48;;;;;;;2.92;2.60;;;17.60;99.90;;;;;;5073292;28;20020;-41
2023/08/05 05:30:13;;;;;;;3.83;2.90;;;17.60;99.90;;;;;;5063450;28;20057;-43
2023/08/05 05:32:39;;;;;;;3.38;3.08;;;17.60;99.90;;;;;;5082626;28;20149;-43
2023/08/05 05:35:05;;;;;;;6.97;3.35;;;17.60;99.90;;;;;;5082911;28;20028;-43
2023/08/05 05:37:31;;;;;;;6.03;3.00;;;17.70;99.90;;;;;;5074945;28;20020;-43
2023/08/05 05:39:56;;;;;;;3.53;3.00;;;17.70;99.90;;;;;;5064416;28;20060;-43
2023/08/05 05:42:22;;;;;;;3.78;3.38;;;17.70;99.90;;;;;;5065477;28;20056;-43
2023/08/05 05:44:52;;;;;;;5.82;3.80;;;17.70;99.90;;;;;;5062856;28;20024;-43
2023/08/05 05:47:19;;;;;;;6.22;3.45;;;17.70;99.90;;;;;;5067579;28;20142;-42
2023/08/05 05:49:44;;;;;;;3.95;3.55;;;17.80;99.90;;;;;;5078936;28;20063;-43
2023/08/05 05:52:16;;;;;;;5.03;3.40;;;17.80;99.90;;;;;;5077738;28;20467;-43
2023/08/05 05:54:43;;;;;;;4.30;3.90;;;17.80;99.90;;;;;;5063908;28;20037;-43
2023/08/05 05:57:12;;;;;;;5.55;4.30;;;17.80;99.90;;;;;;5071885;28;20054;-42
2023/08/05 05:59:39;;;;;;;7.35;3.80;;;17.80;99.90;;;;;;5064825;28;20042;-42
2023/08/05 06:02:06;;;;;;;5.95;3.88;;;17.80;99.90;;;;;;5064972;28;20035;-43
2023/08/05 06:04:31;;;;;;;6.70;4.03;;;17.80;99.90;;;;;;5077937;28;20028;-43
2023/08/05 06:06:57;;;;;;;4.10;3.70;;;17.80;99.90;;;;;;5078391;28;20514;-43
2023/08/05 06:09:25;;;;;;;4.78;3.80;;;17.90;99.90;;;;;;5075159;28;20055;-42
2023/08/05 06:11:51;;;;;;;3.50;3.20;;;17.90;99.90;;;;;;5080076;28;20023;-42
2023/08/05 06:14:17;;;;;;;4.40;3.63;;;17.90;99.90;;;;;;5070512;28;20055;-42
2023/08/05 06:16:43;;;;;;;4.43;3.75;;;17.90;99.90;;;;;;5064547;28;20020;-42
2023/08/05 06:19:09;;;;;;;5.13;3.83;;;17.90;99.90;;;;;;5073182;28;20027;-42
2023/08/05 06:21:34;;;;;;;4.03;3.25;;;17.90;99.90;;;;;;5064780;28;20104;-42
2023/08/05 06:24:00;;;;;;;4.07;3.75;;;18.00;99.90;;;;;;5074626;28;20135;-42
2023/08/05 06:26:26;;;;;;;3.63;3.30;;;18.10;99.90;;;;;;5063965;28;20371;-42
2023/08/05 06:28:52;;;;;;;4.63;3.72;;;18.10;99.90;;;;;;5070826;28;20411;-43
2023/08/05 06:31:17;;;;;;;4.28;3.65;;;18.20;99.90;;;;;;5062979;28;20021;-43
2023/08/05 06:33:46;;;;;;;4.97;3.95;;;18.20;99.90;;;;;;5073462;28;20032;-43
2023/08/05 06:36:12;;;;;;;4.57;4.15;;;18.20;99.90;;;;;;5062386;28;20021;-42
2023/08/05 06:38:37;;;;;;;6.22;4.40;;;18.30;99.90;;;;;;5072921;28;20015;-42
2023/08/05 06:41:03;;;;;;;6.05;4.45;;;18.30;99.90;;;;;;5080587;28;20098;-42
2023/08/05 06:43:29;;;;;;;4.72;3.88;;;18.40;99.90;;;;;;5064036;28;20017;-43
2023/08/05 06:45:54;;;;;;;5.05;4.07;;;18.40;99.90;;;;;;5067628;28;20425;-42
2023/08/05 06:48:20;;;;;;;4.82;4.35;;;18.50;99.90;;;;;;5066133;28;20127;-43
2023/08/05 06:50:45;;;;;;;5.95;4.90;;;18.50;99.90;;;;;;5068524;28;20028;-43
2023/08/05 06:53:11;;;;;;;5.38;4.85;;;18.60;99.90;;;;;;5066195;28;20024;-43
2023/08/05 06:55:37;;;;;;;5.35;4.38;;;18.70;99.90;;;;;;5071815;28;20028;-42
2023/08/05 06:58:05;;;;;;;4.80;4.40;;;18.80;99.90;;;;;;5081982;28;20103;-43
2023/08/05 07:00:30;;;;;;;7.07;5.07;;;18.80;99.90;;;;;;5075284;28;20020;-43
2023/08/05 07:02:57;;;;;;;5.88;5.28;;;18.90;99.90;;;;;;5085575;28;20056;-42
2023/08/05 07:05:23;;;;;;;6.22;5.57;;;18.90;99.90;;;;;;5074349;28;20489;-42
2023/08/05 07:07:49;;;;;;;8.02;5.95;;;19.00;99.90;;;;;;5086154;28;20115;-42
2023/08/05 07:10:17;;;;;;;7.53;6.50;;;19.10;99.90;;;;;;5072791;28;20039;-43
2023/08/05 07:12:43;;;;;;;6.85;6.10;;;19.10;99.90;;;;;;5083310;28;20438;-42
2023/08/05 07:15:09;;;;;;;6.55;5.70;;;19.20;99.90;;;;;;5075905;28;20589;-42
2023/08/05 07:17:35;;;;;;;5.72;4.47;;;19.20;99.90;;;;;;5070545;28;20024;-43
2023/08/05 07:20:01;;;;;;;6.05;5.28;;;19.10;99.90;;;;;;5075814;28;20021;-43
2023/08/05 07:22:29;;;;;;;5.50;5.00;;;19.20;99.90;;;;;;5076068;28;20451;-42
2023/08/05 07:24:55;;;;;;;6.75;5.25;;;19.20;99.90;;;;;;5077160;28;20554;-42
2023/08/05 07:27:21;;;;;;;6.53;5.35;;;19.20;99.90;;;;;;5073454;28;20031;-43
2023/08/05 07:29:46;;;;;;;8.00;5.15;;;19.20;99.90;;;;;;5075456;28;20029;-43
2023/08/05 07:32:12;;;;;;;5.25;4.30;;;19.20;99.90;;;;;;5080371;28;20722;-43
2023/08/05 07:34:38;;;;;;;5.65;4.60;;;19.30;99.90;;;;;;5080680;28;20131;-42
2023/08/05 07:37:05;;;;;;;4.97;4.43;;;19.40;99.90;;;;;;5079233;28;20021;-43
2023/08/05 07:39:34;;;;;;;5.72;4.70;;;19.50;99.90;;;;;;5082093;28;20103;-42
2023/08/05 07:42:06;;;;;;;4.22;3.83;;;19.70;99.90;;;;;;5066946;28;20032;-43
2023/08/05 07:44:32;;;;;;;4.05;3.47;;;19.70;99.90;;;;;;5065462;28;20036;-42
2023/08/05 07:46:59;;;;;;;4.72;3.28;;;19.80;99.90;;;;;;5076761;28;20032;-43
2023/08/05 07:49:25;;;;;;;4.50;3.20;;;19.90;99.90;;;;;;5069614;28;20036;-42
2023/08/05 07:51:52;;;;;;;3.60;2.78;;;19.90;99.90;;;;;;5070968;28;20047;-42
2023/08/05 07:54:18;;;;;;;2.75;2.38;;;19.90;99.90;;;;;;5077955;28;20102;-42
2023/08/05 07:56:43;;;;;;;3.17;2.40;;;19.80;99.90;;;;;;5075860;28;20027;-42
2023/08/05 07:59:12;;;;;;;2.85;2.33;;;19.70;99.90;;;;;;5072394;28;20040;-43
2023/08/05 08:01:42;;;;;;;2.72;2.10;;;19.70;99.90;;;;;;5073363;28;20066;-43
2023/08/05 08:04:13;;;;;;;2.50;2.30;;;19.70;99.90;;;;;;5074640;28;20028;-42
2023/08/05 08:06:38;;;;;;;2.53;2.33;;;19.60;99.90;;;;;;5070553;28;20037;-42
2023/08/05 08:09:07;;;;;;;2.53;2.13;;;19.60;99.90;;;;;;5073363;28;20032;-42
2023/08/05 08:11:32;;;;;;;3.00;2.40;;;19.60;99.90;;;;;;5072500;28;20039;-43
2023/08/05 08:13:58;;;;;;;3.10;2.60;;;19.60;99.90;;;;;;5076095;28;20019;-43
2023/08/05 08:16:23;;;;;;;3.15;2.83;;;19.60;99.90;;;;;;5074494;28;20028;-43
2023/08/05 08:18:49;;;;;;;2.78;2.58;;;19.60;99.90;;;;;;5078549;28;20081;-43
2023/08/05 08:21:15;;;;;;;2.90;2.60;;;19.60;99.90;;;;;;5077118;28;20399;-42
2023/08/05 08:23:40;;;;;;;3.30;2.83;;;19.70;99.90;;;;;;5071313;28;20027;-42
2023/08/05 08:26:06;;;;;;;4.45;3.00;;;19.70;99.90;;;;;;5076177;28;20112;-43
2023/08/05 08:28:31;;;;;;;3.42;2.95;;;19.70;99.90;;;;;;5077404;28;20038;-43
2023/08/05 08:30:57;;;;;;;2.90;2.70;;;19.80;99.90;;;;;;5074626;28;20130;-42
2023/08/05 08:33:25;;;;;;;2.95;2.67;;;19.90;99.90;;;;;;5078736;28;20020;-42
2023/08/05 08:35:51;;;;;;;3.58;2.38;;;20.00;99.90;;;;;;5077994;28;20034;-42
2023/08/05 08:38:18;;;;;;;2.97;2.70;;;20.20;99.90;;;;;;5078027;28;20547;-43
2023/08/05 08:40:51;;;;;;;3.60;2.50;;;20.30;99.90;;;;;;5076818;28;20035;-43
2023/08/05 08:43:18;;;;;;;2.40;2.20;;;20.30;99.90;;;;;;5071455;28;20846;-43
2023/08/05 08:45:47;;;;;;;4.15;2.55;;;20.30;99.90;;;;;;5069695;28;20115;-42
2023/08/05 08:48:17;;;;;;;3.60;2.35;;;20.20;99.90;;;;;;5075589;28;20052;-42
2023/08/05 08:50:44;;;;;;;2.42;2.22;;;20.10;99.90;;;;;;5074419;28;20036;-42
2023/08/05 08:53:12;;;;;;;4.35;2.63;;;20.10;99.90;;;;;;5079141;28;20688;-42
2023/08/05 08:55:38;;;;;;;3.08;2.78;;;20.10;99.90;;;;;;5071788;28;20056;-43
2023/08/05 08:58:04;;;;;;;3.05;2.60;;;20.10;99.90;;;;;;5076621;28;20090;-43
2023/08/05 09:00:30;;;;;;;2.58;2.38;;;20.10;99.90;;;;;;5074033;28;20562;-43
2023/08/05 09:02:59;;;;;;;3.22;2.90;;;20.00;99.90;;;;;;5071664;28;20028;-42
2023/08/05 09:05:26;;;;;;;3.42;3.08;;;19.90;99.90;;;;;;5074950;28;20016;-43
2023/08/05 09:07:52;;;;;;;4.70;3.53;;;19.90;99.90;;;;;;5076633;28;20036;-42
2023/08/05 09:10:18;;;;;;;3.13;2.60;;;19.90;99.90;;;;;;5078574;28;20040;-43
2023/08/05 09:12:44;;;;;;;2.58;2.38;;;19.80;99.90;;;;;;5077782;28;20021;-43
2023/08/05 09:15:14;;;;;;;3.72;2.67;;;19.80;99.90;;;;;;5073931;28;20087;-42
2023/08/05 09:17:49;;;;;;;3.50;3.20;;;19.80;99.90;;;;;;5076534;28;20101;-42
2023/08/05 09:20:22;;;;;;;2.38;2.17;;;19.90;99.90;;;;;;5071482;28;20426;-42
2023/08/05 09:22:59;;;;;;;4.65;3.20;;;19.90;99.90;;;;;;5073391;28;20024;-42
2023/08/05 09:25:25;;;;;;;2.67;2.47;;;19.90;99.90;;;;;;5075608;28;20138;-42
2023/08/05 09:27:52;;;;;;;2.78;2.58;;;20.00;99.90;;;;;;5073908;28;20452;-42
2023/08/05 09:30:19;;;;;;;3.13;2.90;;;20.00;99.90;;;;;;5071724;28;20048;-42
2023/08/05 09:32:45;;;;;;;2.75;2.55;;;20.20;99.90;;;;;;5072883;28;20542;-43
2023/08/05 09:35:12;;;;;;;2.75;2.50;;;20.30;99.90;;;;;;5074017;28;20024;-42
2023/08/05 09:37:40;;;;;;;3.33;2.92;;;20.40;99.90;;;;;;5072440;28;20073;-43
2023/08/05 09:40:17;;;;;;;2.85;2.13;;;20.50;99.90;;;;;;5070970;28;20032;-43
2023/08/05 09:42:47;;;;;;;2.58;2.38;;;20.60;99.90;;;;;;5075140;28;20055;-43
2023/08/05 09:45:15;;;;;;;2.38;2.17;;;20.70;99.90;;;;;;5071065;28;20532;-43
2023/08/05 09:47:42;;;;;;;3.13;2.28;;;20.70;99.90;;;;;;5075538;28;20061;-43
2023/08/05 09:50:14;;;;;;;1.90;1.80;;;20.90;99.90;;;;;;5073095;28;20075;-43
2023/08/05 09:52:39;;;;;;;3.03;2.60;;;21.00;99.90;;;;;;5076618;28;20376;-43
2023/08/05 09:55:19;;;;;;;2.45;2.20;;;21.10;99.90;;;;;;5075183;28;20024;-43
2023/08/05 09:57:46;;;;;;;3.03;2.10;;;21.20;99.90;;;;;;5074562;28;20114;-43
2023/08/05 10:00:14;;;;;;;1.55;1.40;;;21.30;99.90;;;;;;5073977;28;20448;-43
2023/08/05 10:02:47;;;;;;;2.40;2.20;;;21.30;99.90;;;;;;5076964;28;20020;-44
2023/08/05 10:05:15;;;;;;;2.28;2.08;;;21.40;99.90;;;;;;5066858;28;20020;-42
2023/08/05 10:07:44;;;;;;;1.83;1.70;;;21.40;99.90;;;;;;5074406;28;20055;-46
2023/08/05 10:10:15;;;;;;;2.40;2.08;;;21.40;99.90;;;;;;5069180;28;20051;-43
2023/08/05 10:12:50;;;;;;;2.95;2.00;;;21.40;99.90;;;;;;5076436;28;20024;-43
2023/08/05 10:15:25;;;;;;;2.92;2.55;;;21.30;99.90;;;;;;5076027;28;20032;-43
2023/08/05 10:17:51;;;;;;;3.90;3.05;;;21.40;99.90;;;;;;5070437;28;20506;-43
2023/08/05 10:20:17;;;;;;;3.15;2.90;;;21.40;99.90;;;;;;5070352;28;20816;-42
2023/08/05 10:23:03;;;;;;;2.97;2.78;;;21.40;99.90;;;;;;5070984;28;20028;-43
2023/08/05 10:25:48;;;;;;;2.80;2.45;;;21.60;99.90;;;;;;5070171;28;20111;-43
2023/08/05 10:28:22;;;;;;;2.88;2.67;;;21.60;99.90;;;;;;5072991;28;20032;-42
2023/08/05 10:30:48;;;;;;;2.83;2.63;;;21.70;99.90;;;;;;5071171;28;20139;-41
2023/08/05 10:33:15;;;;;;;2.92;2.38;;;21.70;99.90;;;;;;5076330;28;20568;-41
2023/08/05 10:35:42;;;;;;;3.15;2.55;;;21.70;99.90;;;;;;5077676;28;20028;-41
2023/08/05 10:38:22;;;;;;;2.60;2.40;;;21.80;99.90;;;;;;5077728;28;20365;-41
2023/08/05 10:40:51;;;;;;;2.40;2.25;;;21.90;99.90;;;;;;5079642;28;20039;-42
2023/08/05 10:43:35;;;;;;;2.67;2.47;;;22.00;99.90;;;;;;5072700;28;20071;-42
2023/08/05 10:46:07;;;;;;;3.13;2.47;;;22.20;99.90;;;;;;5074158;28;20837;-41
2023/08/05 10:48:42;;;;;;;2.80;2.60;;;22.30;99.90;;;;;;5073022;28;20055;-42
2023/08/05 10:51:11;;;;;;;2.70;2.50;;;22.40;99.90;;;;;;5074360;28;20050;-42
2023/08/05 10:53:43;;;;;;;2.38;2.17;;;22.50;99.90;;;;;;5081945;28;20031;-42
2023/08/05 10:56:13;;;;;;;3.65;2.75;;;22.60;99.90;;;;;;5067955;28;20024;-42
2023/08/05 10:58:54;;;;;;;2.42;2.22;;;22.70;99.90;;;;;;5071962;28;20036;-41
2023/08/05 11:01:20;;;;;;;2.83;2.17;;;22.70;99.90;;;;;;5075215;28;20838;-41
2023/08/05 11:03:52;;;;;;;2.40;2.20;;;22.70;99.90;;;;;;5077715;28;20036;-41
2023/08/05 11:06:25;;;;;;;2.45;2.25;;;22.60;99.90;;;;;;5072837;28;20142;-41
2023/08/05 11:08:51;;;;;;;2.65;2.45;;;22.50;99.90;;;;;;5075412;28;20039;-41
2023/08/05 11:11:20;;;;;;;2.70;2.30;;;22.40;99.90;;;;;;5078485;28;20028;-42
2023/08/05 11:13:47;;;;;;;2.50;2.30;;;22.30;99.90;;;;;;5078930;28;20379;-42
2023/08/05 11:16:15;;;;;;;2.83;2.60;;;22.40;99.90;;;;;;5074312;28;20028;-42
2023/08/05 11:18:46;;;;;;;2.72;2.53;;;22.50;99.90;;;;;;5071771;28;20021;-42
2023/08/05 11:21:15;;;;;;;2.33;2.13;;;22.70;99.90;;;;;;5077136;28;20082;-42
2023/08/05 11:23:43;;;;;;;2.67;2.47;;;22.80;99.90;;;;;;5075772;28;20982;-42
2023/08/05 11:26:09;;;;;;;2.35;2.15;;;23.00;99.90;;;;;;5077734;28;20027;-42
2023/08/05 11:28:40;;;;;;;2.75;2.35;;;23.00;99.90;;;;;;5074830;28;20035;-42
2023/08/05 11:31:06;;;;;;;2.20;1.80;;;23.00;99.90;;;;;;5076622;28;21797;-42
2023/08/05 11:33:32;;;;;;;2.15;1.95;;;23.10;99.90;;;;;;5077162;28;20103;-42
2023/08/05 11:35:58;;;;;;;2.58;2.25;;;23.10;99.90;;;;;;5078936;28;20035;-42
2023/08/05 11:38:24;;;;;;;2.28;2.08;;;23.10;99.90;;;;;;5079892;28;20552;-41
2023/08/05 11:40:55;;;;;;;3.35;2.00;;;23.10;99.90;;;;;;5077505;28;20028;-42
2023/08/05 11:43:22;;;;;;;2.20;2.00;;;23.00;99.90;;;;;;5074355;28;20020;-42
2023/08/05 11:45:48;;;;;;;1.77;1.60;;;22.90;99.90;;;;;;5076035;28;20031;-42
2023/08/05 11:48:25;;;;;;;1.88;1.77;;;22.70;99.90;;;;;;5075573;28;20041;-42
2023/08/05 11:50:59;;;;;;;1.73;1.63;;;22.60;99.90;;;;;;5071508;28;20039;-42
2023/08/05 11:53:26;;;;;;;2.45;1.80;;;22.40;99.90;;;;;;5077851;28;20016;-42
2023/08/05 11:55:52;;;;;;;2.03;1.80;;;22.20;99.90;;;;;;5080353;28;20065;-42
2023/08/05 11:58:18;;;;;;;2.40;2.20;;;22.00;99.90;;;;;;5073204;28;20112;-43
2023/08/05 12:01:00;;;;;;;2.53;2.33;;;21.80;99.90;;;;;;5074513;28;20024;-43
2023/08/05 12:03:32;;;;;;;3.78;2.65;;;21.70;99.90;;;;;;5077460;28;20037;-42
2023/08/05 12:06:03;;;;;;;2.40;2.13;;;21.40;99.90;;;;;;5077151;28;20054;-43
2023/08/05 12:08:46;;;;;;;2.53;2.15;;;20.80;99.90;;;;;;5073467;28;20024;-42
2023/08/05 12:11:12;;;;;;;2.33;2.13;;;20.20;99.90;;;;;;5078401;28;20027;-42
2023/08/05 12:13:41;;;;;;;1.92;1.83;;;19.80;99.90;;;;;;5075460;28;20025;-42
2023/08/05 12:16:16;;;;;;;2.67;2.40;;;19.60;99.90;;;;;;5073786;28;20051;-42
2023/08/05 12:18:46;;;;;;;2.80;2.60;;;19.50;99.90;;;;;;5072205;28;20475;-42
2023/08/05 12:21:18;;;;;;;3.30;3.00;;;19.40;99.90;;;;;;5072926;28;20020;-42
2023/08/05 12:23:43;;;;;;;2.97;2.67;;;19.30;99.90;;;;;;5083684;28;20114;-42
2023/08/05 12:26:10;;;;;;;2.80;2.60;;;19.30;99.90;;;;;;5071568;28;20134;-42
2023/08/05 12:28:36;;;;;;;2.90;2.60;;;19.30;99.90;;;;;;5068775;28;20473;-43
2023/08/05 12:31:06;;;;;;;3.70;3.03;;;19.30;99.90;;;;;;5073051;28;20039;-42
2023/08/05 12:33:31;;;;;;;3.72;3.42;;;19.30;99.90;;;;;;5075059;28;20036;-43
2023/08/05 12:35:57;;;;;;;3.42;2.70;;;19.40;99.90;;;;;;5070362;28;20032;-42
2023/08/05 12:38:22;;;;;;;3.17;2.63;;;19.40;99.90;;;;;;5065356;28;20124;-42
2023/08/05 12:40:48;;;;;;;3.53;2.90;;;19.40;99.90;;;;;;5077432;28;20086;-42
2023/08/05 12:43:14;;;;;;;4.05;3.17;;;19.40;99.90;;;;;;5078533;28;20108;-42
2023/08/05 12:45:39;;;;;;;2.75;2.55;;;19.40;99.90;;;;;;5074961;28;20027;-42
2023/08/05 12:48:05;;;;;;;3.13;2.83;;;19.50;99.90;;;;;;5078974;28;20052;-42
2023/08/05 12:50:30;;;;;;;5.03;2.90;;;19.50;99.90;;;;;;5076789;28;20028;-42